createdAt,value
2022-08-17T00:02:26.547Z,16.40
2022-08-17T00:04:55.554Z,16.30
2022-08-17T00:07:23.021Z,17.10
2022-08-17T00:09:49.963Z,15.63
2022-08-17T00:12:42.703Z,16.05
2022-08-17T00:15:05.820Z,16.80
2022-08-17T00:17:35.448Z,16.52
2022-08-17T00:20:03.449Z,16.48
2022-08-17T00:22:33.564Z,16.75
2022-08-17T00:25:07.383Z,16.85
2022-08-17T00:27:35.594Z,16.50
2022-08-17T00:30:04.081Z,16.65
2022-08-17T00:33:13.793Z,16.50
2022-08-17T00:35:31.538Z,17.30
2022-08-17T00:37:58.709Z,16.63
2022-08-17T00:40:25.587Z,16.92
2022-08-17T00:42:53.513Z,16.35
2022-08-17T00:45:22.604Z,17.10
2022-08-17T00:47:49.656Z,17.95
2022-08-17T00:50:19.841Z,15.95
2022-08-17T00:52:58.160Z,16.83
2022-08-17T00:55:25.918Z,17.88
2022-08-17T00:57:58.604Z,18.00
2022-08-17T01:00:30.060Z,17.55
2022-08-17T01:03:12.014Z,17.48
2022-08-17T01:05:42.328Z,17.20
2022-08-17T01:08:13.616Z,17.50
2022-08-17T01:10:59.736Z,17.23
2022-08-17T01:13:41.722Z,16.77
2022-08-17T01:16:22.986Z,17.73
2022-08-17T01:18:54.857Z,16.55
2022-08-17T01:21:33.426Z,17.38
2022-08-17T01:24:01.213Z,17.00
2022-08-17T01:26:30.494Z,16.63
2022-08-17T01:28:57.482Z,17.45
2022-08-17T01:31:30.134Z,18.48
2022-08-17T01:34:00.620Z,18.23
2022-08-17T01:36:29.437Z,16.98
2022-08-17T01:38:56.620Z,16.23
2022-08-17T01:41:24.397Z,17.08
2022-08-17T01:43:56.800Z,17.38
2022-08-17T01:46:28.871Z,16.73
2022-08-17T01:48:57.669Z,17.77
2022-08-17T01:51:27.769Z,16.52
2022-08-17T01:53:58.476Z,17.02
2022-08-17T01:56:27.974Z,16.60
2022-08-17T01:58:55.292Z,16.25
2022-08-17T02:01:26.811Z,16.30
2022-08-17T02:04:01.416Z,16.90
2022-08-17T02:06:52.799Z,18.45
2022-08-17T02:09:19.092Z,16.38
2022-08-17T02:11:50.216Z,18.35
2022-08-17T02:14:18.007Z,17.17
2022-08-17T02:16:45.112Z,18.27
2022-08-17T02:19:15.692Z,18.63
2022-08-17T02:21:46.113Z,17.20
2022-08-17T02:25:00.385Z,17.85
2022-08-17T02:27:07.456Z,17.83
2022-08-17T02:29:34.935Z,17.95
2022-08-17T02:32:01.990Z,17.33
2022-08-17T02:34:30.091Z,16.92
2022-08-17T02:36:57.246Z,18.40
2022-08-17T02:39:24.415Z,17.83
2022-08-17T02:42:01.584Z,17.65
2022-08-17T02:44:39.316Z,17.25
2022-08-17T02:47:09.158Z,16.73
2022-08-17T02:49:37.249Z,16.73
2022-08-17T02:52:06.649Z,17.90
2022-08-17T02:54:41.583Z,16.80
2022-08-17T02:57:10.616Z,16.95
2022-08-17T02:59:39.384Z,17.05
2022-08-17T03:02:07.952Z,17.58
2022-08-17T03:04:35.397Z,17.42
2022-08-17T03:07:04.221Z,16.70
2022-08-17T03:09:31.873Z,17.98
2022-08-17T03:12:11.131Z,16.73
2022-08-17T03:14:41.440Z,16.95
2022-08-17T03:17:16.916Z,18.48
2022-08-17T03:19:44.930Z,17.45
2022-08-17T03:22:36.426Z,16.23
2022-08-17T03:24:59.037Z,18.00
2022-08-17T03:27:26.469Z,17.80
2022-08-17T03:29:53.415Z,17.70
2022-08-17T03:32:20.870Z,16.60
2022-08-17T03:34:48.180Z,16.83
2022-08-17T03:37:15.230Z,16.58
2022-08-17T03:39:43.005Z,17.67
2022-08-17T03:42:31.900Z,17.98
2022-08-17T03:45:01.214Z,17.95
2022-08-17T03:47:47.321Z,17.98
2022-08-17T03:50:34.866Z,18.45
2022-08-17T03:53:24.936Z,18.58
2022-08-17T03:56:30.701Z,17.58
2022-08-17T03:58:57.734Z,17.52
2022-08-17T04:01:24.810Z,19.23
2022-08-17T04:03:51.722Z,17.48
2022-08-17T04:06:18.883Z,17.73
2022-08-17T04:08:45.930Z,17.55
2022-08-17T04:11:12.839Z,17.55
2022-08-17T04:13:39.925Z,17.63
2022-08-17T04:16:06.997Z,17.33
2022-08-17T04:18:33.839Z,17.40
2022-08-17T04:21:01.181Z,16.48
2022-08-17T04:23:32.991Z,17.27
2022-08-17T04:26:00.970Z,16.65
2022-08-17T04:28:28.086Z,16.73
2022-08-17T04:30:55.031Z,16.85
2022-08-17T04:33:24.828Z,16.00
2022-08-17T04:35:55.315Z,17.05
2022-08-17T04:38:24.932Z,15.80
2022-08-17T04:41:11.949Z,15.48
2022-08-17T04:43:41.204Z,16.65
2022-08-17T04:46:16.588Z,15.80
2022-08-17T04:48:46.702Z,15.40
2022-08-17T04:51:17.893Z,14.55
2022-08-17T04:53:53.827Z,15.25
2022-08-17T04:56:23.933Z,14.38
2022-08-17T04:58:52.782Z,14.45
2022-08-17T05:01:23.643Z,14.27
2022-08-17T05:03:53.396Z,15.20
2022-08-17T05:06:21.031Z,14.80
2022-08-17T05:08:48.152Z,14.75
2022-08-17T05:11:15.809Z,13.60
2022-08-17T05:13:42.779Z,13.90
2022-08-17T05:16:09.756Z,13.90
2022-08-17T05:18:40.220Z,14.85
2022-08-17T05:21:07.811Z,13.90
2022-08-17T05:23:41.769Z,13.25
2022-08-17T05:26:26.206Z,13.18
2022-08-17T05:28:57.106Z,13.65
2022-08-17T05:31:26.012Z,13.55
2022-08-17T05:33:53.469Z,12.40
2022-08-17T05:36:42.737Z,13.63
2022-08-17T05:39:07.798Z,12.55
2022-08-17T05:41:34.786Z,11.77
2022-08-17T05:44:05.314Z,12.48
2022-08-17T05:46:37.730Z,11.88
2022-08-17T05:49:11.062Z,11.73
2022-08-17T05:52:03.646Z,11.45
2022-08-17T05:54:43.051Z,11.60
2022-08-17T05:57:39.867Z,12.07
2022-08-17T06:00:30.049Z,12.73
2022-08-17T06:03:18.806Z,12.38
2022-08-17T06:05:45.771Z,11.70
2022-08-17T06:08:51.951Z,10.82
2022-08-17T06:11:38.981Z,10.40
2022-08-17T06:14:23.301Z,10.48
2022-08-17T06:17:00.547Z,10.60
2022-08-17T06:19:41.276Z,10.05
2022-08-17T06:22:10.784Z,10.40
2022-08-17T06:24:41.995Z,9.73
2022-08-17T06:27:18.855Z,9.95
2022-08-17T06:29:55.233Z,10.43
2022-08-17T06:32:23.244Z,9.60
2022-08-17T06:34:52.162Z,9.30
2022-08-17T06:37:29.991Z,10.05
2022-08-17T06:40:20.537Z,8.43
2022-08-17T06:43:08.728Z,8.48
2022-08-17T06:45:49.473Z,8.13
2022-08-17T06:48:25.014Z,7.97
2022-08-17T06:51:02.704Z,7.78
2022-08-17T06:53:40.401Z,7.95
2022-08-17T06:56:16.801Z,9.18
2022-08-17T06:58:44.933Z,8.35
2022-08-17T07:01:24.529Z,9.05
2022-08-17T07:04:11.987Z,8.57
2022-08-17T07:06:57.203Z,9.35
2022-08-17T07:09:31.289Z,10.40
2022-08-17T07:12:10.221Z,10.10
2022-08-17T07:14:52.872Z,9.85
2022-08-17T07:17:22.117Z,10.13
2022-08-17T07:20:13.270Z,10.20
2022-08-17T07:25:30.785Z,9.35
2022-08-17T07:28:00.828Z,8.52
2022-08-17T07:30:31.949Z,9.15
2022-08-17T07:33:17.896Z,8.60
2022-08-17T07:35:46.300Z,8.23
2022-08-17T07:38:24.339Z,8.93
2022-08-17T07:41:02.206Z,8.05
2022-08-17T07:43:32.063Z,7.82
2022-08-17T07:46:20.663Z,7.80
2022-08-17T07:48:51.276Z,7.55
2022-08-17T07:51:26.949Z,7.82
2022-08-17T07:54:14.197Z,8.15
2022-08-17T07:56:52.499Z,7.97
2022-08-17T07:59:24.135Z,8.15
2022-08-17T08:01:58.146Z,9.20
2022-08-17T08:04:59.107Z,8.50
2022-08-17T08:07:21.819Z,7.43
2022-08-17T08:10:07.938Z,7.53
2022-08-17T08:12:36.853Z,8.23
2022-08-17T08:15:21.874Z,7.78
2022-08-17T08:17:59.345Z,7.15
2022-08-17T08:20:54.045Z,7.65
2022-08-17T08:23:36.367Z,7.72
2022-08-17T08:26:33.899Z,7.22
2022-08-17T08:29:03.907Z,8.02
2022-08-17T08:31:51.559Z,7.63
2022-08-17T08:34:53.449Z,7.03
2022-08-17T08:37:42.886Z,7.22
2022-08-17T08:40:28.383Z,6.95
2022-08-17T08:43:10.876Z,6.85
2022-08-17T08:46:18.395Z,6.80
2022-08-17T08:49:17.055Z,7.18
2022-08-17T08:51:55.724Z,6.70
2022-08-17T08:54:31.701Z,6.97
2022-08-17T08:57:30.781Z,6.97
2022-08-17T09:00:17.448Z,6.38
2022-08-17T09:02:47.073Z,6.97
2022-08-17T09:05:48.424Z,7.55
2022-08-17T09:08:43.504Z,7.55
2022-08-17T09:11:24.605Z,8.70
2022-08-17T09:14:21.540Z,6.93
2022-08-17T09:17:29.881Z,6.45
2022-08-17T09:20:27.228Z,6.28
2022-08-17T09:23:08.083Z,6.65
2022-08-17T09:25:58.730Z,7.03
2022-08-17T09:28:35.044Z,7.05
2022-08-17T09:31:21.720Z,7.07
2022-08-17T09:33:49.219Z,6.82
2022-08-17T09:36:22.399Z,7.38
2022-08-17T09:39:01.651Z,7.35
2022-08-17T09:41:48.768Z,7.55
2022-08-17T09:44:27.043Z,6.95
2022-08-17T09:47:03.835Z,8.63
2022-08-17T09:49:38.409Z,7.47
2022-08-17T09:52:14.869Z,7.07
2022-08-17T09:54:46.756Z,7.30
2022-08-17T09:57:36.115Z,7.72
2022-08-17T10:00:27.002Z,8.23
2022-08-17T10:03:16.502Z,7.38
2022-08-17T10:05:56.714Z,7.65
2022-08-17T10:08:39.361Z,7.23
2022-08-17T10:11:15.347Z,6.90
2022-08-17T10:14:36.086Z,6.80
2022-08-17T10:17:15.877Z,7.03
2022-08-17T10:20:09.391Z,7.15
2022-08-17T10:23:18.207Z,6.55
2022-08-17T10:26:09.010Z,7.45
2022-08-17T10:29:13.431Z,8.45
2022-08-17T10:31:51.971Z,7.18
2022-08-17T10:34:41.817Z,7.55
2022-08-17T10:37:55.846Z,7.10
2022-08-17T10:40:46.219Z,6.97
2022-08-17T10:43:38.513Z,6.90
2022-08-17T10:46:30.671Z,7.20
2022-08-17T10:49:16.954Z,6.97
2022-08-17T10:51:47.977Z,7.10
2022-08-17T10:54:24.202Z,7.28
2022-08-17T10:56:58.202Z,6.72
2022-08-17T10:59:37.382Z,7.03
2022-08-17T11:02:12.433Z,7.13
2022-08-17T11:05:02.295Z,6.72
2022-08-17T11:07:35.177Z,7.30
2022-08-17T11:10:42.285Z,7.35
2022-08-17T11:13:21.914Z,6.55
2022-08-17T11:16:08.206Z,6.65
2022-08-17T11:19:10.064Z,6.82
2022-08-17T11:22:06.535Z,6.75
2022-08-17T11:24:37.400Z,6.95
2022-08-17T11:27:28.503Z,7.40
2022-08-17T11:30:01.548Z,6.65
2022-08-17T11:32:47.739Z,6.97
2022-08-17T11:35:22.026Z,7.07
2022-08-17T11:38:13.980Z,6.65
2022-08-17T11:41:08.128Z,6.68
2022-08-17T11:44:05.997Z,7.25
2022-08-17T11:47:07.189Z,7.43
2022-08-17T11:50:08.314Z,6.68
2022-08-17T11:52:47.497Z,6.50
2022-08-17T11:55:39.646Z,6.75
2022-08-17T11:58:17.847Z,6.30
2022-08-17T12:00:44.860Z,6.28
2022-08-17T12:03:26.634Z,5.75
2022-08-17T12:06:17.700Z,6.40
2022-08-17T12:08:52.292Z,6.57
2022-08-17T12:11:58.731Z,6.20
2022-08-17T12:15:08.426Z,6.10
2022-08-17T12:17:41.613Z,6.45
2022-08-17T12:20:12.481Z,7.30
2022-08-17T12:22:53.814Z,6.57
2022-08-17T12:28:04.789Z,7.15
2022-08-17T12:30:32.827Z,6.85
2022-08-17T12:33:00.803Z,6.38
2022-08-17T12:35:35.370Z,6.00
2022-08-17T12:38:07.521Z,6.75
2022-08-17T12:40:57.986Z,5.93
2022-08-17T12:45:59.651Z,6.28
2022-08-17T12:48:31.105Z,6.90
2022-08-17T12:53:35.201Z,6.57
2022-08-17T12:56:10.923Z,5.97
2022-08-17T12:58:49.232Z,6.22
2022-08-17T13:01:17.667Z,6.28
2022-08-17T13:03:49.537Z,6.63
2022-08-17T13:06:28.524Z,6.43
2022-08-17T13:08:55.837Z,7.22
2022-08-17T13:11:24.940Z,6.10
2022-08-17T13:13:56.302Z,6.45
2022-08-17T13:16:26.795Z,6.80
2022-08-17T13:19:06.351Z,6.30
2022-08-17T13:21:35.703Z,6.97
2022-08-17T13:24:10.128Z,6.28
2022-08-17T13:26:40.790Z,6.75
2022-08-17T13:29:31.468Z,7.53
2022-08-17T13:32:13.147Z,6.30
2022-08-17T13:35:13.829Z,5.55
2022-08-17T13:37:48.781Z,6.75
2022-08-17T13:40:15.960Z,7.00
2022-08-17T13:42:52.178Z,7.35
2022-08-17T13:45:36.341Z,7.10
2022-08-17T13:48:11.810Z,6.55
2022-08-17T13:51:01.634Z,6.78
2022-08-17T13:53:49.087Z,7.60
2022-08-17T13:56:44.526Z,7.72
2022-08-17T13:59:36.390Z,6.60
2022-08-17T14:02:14.874Z,6.38
2022-08-17T14:04:43.780Z,6.68
2022-08-17T14:07:13.616Z,7.25
2022-08-17T14:09:47.211Z,6.72
2022-08-17T14:12:17.304Z,7.15
2022-08-17T14:14:45.048Z,6.85
2022-08-17T14:17:12.853Z,6.45
2022-08-17T14:19:40.223Z,6.72
2022-08-17T14:22:11.640Z,6.82
2022-08-17T14:24:44.679Z,6.38
2022-08-17T14:27:12.571Z,6.47
2022-08-17T14:29:41.302Z,7.10
2022-08-17T14:32:18.231Z,6.95
2022-08-17T14:34:46.293Z,7.00
2022-08-17T14:37:13.562Z,7.28
2022-08-17T14:39:40.562Z,7.38
2022-08-17T14:42:08.543Z,7.18
2022-08-17T14:44:36.282Z,7.55
2022-08-17T14:47:04.517Z,6.38
2022-08-17T14:49:31.922Z,7.03
2022-08-17T14:52:00.640Z,7.70
2022-08-17T14:54:29.415Z,6.63
2022-08-17T14:57:22.818Z,6.70
2022-08-17T14:59:55.181Z,6.57
2022-08-17T15:02:30.908Z,6.47
2022-08-17T15:05:00.769Z,6.82
2022-08-17T15:07:30.479Z,6.47
2022-08-17T15:10:01.607Z,6.78
2022-08-17T15:12:33.080Z,6.53
2022-08-17T15:15:01.344Z,6.63
2022-08-17T15:17:45.212Z,7.00
2022-08-17T15:20:22.998Z,6.60
2022-08-17T15:22:50.621Z,6.80
2022-08-17T15:25:19.129Z,6.20
2022-08-17T15:27:46.437Z,6.55
2022-08-17T15:30:13.870Z,6.18
2022-08-17T15:32:47.500Z,6.47
2022-08-17T15:35:26.804Z,6.23
2022-08-17T15:38:11.223Z,6.15
2022-08-17T15:40:43.981Z,6.10
2022-08-17T15:43:17.433Z,6.57
2022-08-17T15:45:59.983Z,6.72
2022-08-17T15:48:41.333Z,6.60
2022-08-17T15:53:37.528Z,6.97
2022-08-17T15:56:05.825Z,6.95
2022-08-17T15:58:36.959Z,6.70
2022-08-17T16:01:16.458Z,6.85
2022-08-17T16:04:04.302Z,7.18
2022-08-17T16:06:34.799Z,7.07
2022-08-17T16:09:01.691Z,6.93
2022-08-17T16:11:28.601Z,6.82
2022-08-17T16:13:56.175Z,7.32
2022-08-17T16:16:23.804Z,7.30
2022-08-17T16:18:55.668Z,7.60
2022-08-17T16:21:26.187Z,7.55
2022-08-17T16:23:56.262Z,7.90
2022-08-17T16:26:23.646Z,7.93
2022-08-17T16:28:51.434Z,7.80
2022-08-17T16:31:18.588Z,8.23
2022-08-17T16:34:16.400Z,8.18
2022-08-17T16:36:32.697Z,8.20
2022-08-17T16:39:00.649Z,8.60
2022-08-17T16:41:45.757Z,8.98
2022-08-17T16:44:17.635Z,8.35
2022-08-17T16:46:46.253Z,8.85
2022-08-17T16:49:35.589Z,7.90
2022-08-17T16:52:03.363Z,8.75
2022-08-17T16:54:30.818Z,9.23
2022-08-17T16:56:57.874Z,8.45
2022-08-17T16:59:31.226Z,8.68
2022-08-17T17:02:11.276Z,8.88
2022-08-17T17:04:51.762Z,9.05
2022-08-17T17:07:36.236Z,9.88
2022-08-17T17:10:08.362Z,10.18
2022-08-17T17:13:01.571Z,10.13
2022-08-17T17:15:33.029Z,8.77
2022-08-17T17:18:07.012Z,9.05
2022-08-17T17:20:47.687Z,9.25
2022-08-17T17:23:37.880Z,9.55
2022-08-17T17:26:11.598Z,9.65
2022-08-17T17:28:54.330Z,9.60
2022-08-17T17:31:24.995Z,9.68
2022-08-17T17:33:57.464Z,10.57
2022-08-17T17:36:26.964Z,10.77
2022-08-17T17:39:18.446Z,10.18
2022-08-17T17:41:58.568Z,9.07
2022-08-17T17:44:33.129Z,10.57
2022-08-17T17:47:02.804Z,9.70
2022-08-17T17:49:34.419Z,9.95
2022-08-17T17:52:14.530Z,9.73
2022-08-17T17:55:13.128Z,12.23
2022-08-17T17:57:46.896Z,10.50
2022-08-17T18:00:21.974Z,10.75
2022-08-17T18:03:12.641Z,10.90
2022-08-17T18:06:29.797Z,10.60
2022-08-17T18:09:18.099Z,10.95
2022-08-17T18:12:00.048Z,10.68
2022-08-17T18:14:33.224Z,11.45
2022-08-17T18:17:02.167Z,12.43
2022-08-17T18:19:30.686Z,11.93
2022-08-17T18:22:14.540Z,12.10
2022-08-17T18:24:44.887Z,13.13
2022-08-17T18:27:49.518Z,11.98
2022-08-17T18:30:16.638Z,12.52
2022-08-17T18:32:46.630Z,12.95
2022-08-17T18:35:16.402Z,12.98
2022-08-17T18:37:45.196Z,13.55
2022-08-17T18:40:19.305Z,14.90
2022-08-17T18:42:55.625Z,13.82
2022-08-17T18:45:35.688Z,14.00
2022-08-17T18:48:03.006Z,14.02
2022-08-17T18:50:43.834Z,13.65
2022-08-17T18:53:34.651Z,14.10
2022-08-17T18:56:26.432Z,13.35
2022-08-17T18:59:03.566Z,13.65
2022-08-17T19:02:00.806Z,14.07
2022-08-17T19:04:36.792Z,14.65
2022-08-17T19:07:11.407Z,14.00
2022-08-17T19:09:44.978Z,14.50
2022-08-17T19:12:27.018Z,14.52
2022-08-17T19:14:57.189Z,14.68
2022-08-17T19:17:33.284Z,14.10
2022-08-17T19:20:12.967Z,14.65
2022-08-17T19:23:05.254Z,14.60
2022-08-17T19:25:41.187Z,13.95
2022-08-17T19:28:33.868Z,14.85
2022-08-17T19:31:13.647Z,14.13
2022-08-17T19:33:40.797Z,14.48
2022-08-17T19:36:24.024Z,14.88
2022-08-17T19:39:02.879Z,14.25
2022-08-17T19:41:59.467Z,14.65
2022-08-17T19:44:49.511Z,14.32
2022-08-17T19:47:53.283Z,14.77
2022-08-17T19:50:23.726Z,14.77
2022-08-17T19:53:09.528Z,15.10
2022-08-17T19:55:47.714Z,14.88
2022-08-17T19:58:27.781Z,14.68
2022-08-17T20:00:54.897Z,15.20
2022-08-17T20:03:45.023Z,15.48
2022-08-17T20:06:13.858Z,15.85
2022-08-17T20:08:55.262Z,15.15
2022-08-17T20:11:32.360Z,15.27
2022-08-17T20:14:08.058Z,15.13
2022-08-17T20:16:35.002Z,16.08
2022-08-17T20:19:11.262Z,15.68
2022-08-17T20:22:10.540Z,16.15
2022-08-17T20:24:43.619Z,15.18
2022-08-17T20:27:18.527Z,15.30
2022-08-17T20:30:00.601Z,15.45
2022-08-17T20:32:31.272Z,15.60
2022-08-17T20:35:25.892Z,15.95
2022-08-17T20:38:36.322Z,15.88
2022-08-17T20:41:03.964Z,15.57
2022-08-17T20:43:33.623Z,17.23
2022-08-17T20:46:17.871Z,16.30
2022-08-17T20:48:49.346Z,16.30
2022-08-17T20:53:53.530Z,15.95
2022-08-17T20:56:46.470Z,15.90
2022-08-17T20:59:25.889Z,16.75
2022-08-17T21:02:18.169Z,17.05
2022-08-17T21:04:55.282Z,16.70
2022-08-17T21:07:29.685Z,15.63
2022-08-17T21:10:25.879Z,17.30
2022-08-17T21:13:27.634Z,16.73
2022-08-17T21:16:16.581Z,16.35
2022-08-17T21:19:17.006Z,17.27
2022-08-17T21:22:07.553Z,18.30
2022-08-17T21:25:00.590Z,17.50
2022-08-17T21:27:43.919Z,16.98
2022-08-17T21:30:27.494Z,17.17
2022-08-17T21:33:16.340Z,17.55
2022-08-17T21:36:11.845Z,17.00
2022-08-17T21:38:47.884Z,16.73
2022-08-17T21:41:22.175Z,17.35
2022-08-17T21:43:52.519Z,17.52
2022-08-17T21:46:30.185Z,17.15
2022-08-17T21:49:13.614Z,17.83
2022-08-17T21:51:45.717Z,18.13
2022-08-17T21:54:27.304Z,18.50
2022-08-17T21:56:54.801Z,18.55
2022-08-17T21:59:27.472Z,18.38
2022-08-17T22:02:03.720Z,18.17
2022-08-17T22:04:37.361Z,19.02
2022-08-17T22:07:11.773Z,18.70
2022-08-17T22:09:50.062Z,19.42
2022-08-17T22:12:20.161Z,18.98
2022-08-17T22:15:00.439Z,18.83
2022-08-17T22:17:48.171Z,19.35
2022-08-17T22:20:20.353Z,18.15
2022-08-17T22:23:09.081Z,18.27
2022-08-17T22:25:57.439Z,19.35
2022-08-17T22:28:52.371Z,18.40
2022-08-17T22:31:28.506Z,18.83
2022-08-17T22:33:59.884Z,18.42
2022-08-17T22:36:30.886Z,18.38
2022-08-17T22:39:20.790Z,18.88
2022-08-17T22:41:48.305Z,18.27
2022-08-17T22:44:31.858Z,19.05
2022-08-17T22:47:00.975Z,20.23
2022-08-17T22:49:53.648Z,19.63
2022-08-17T22:52:29.162Z,18.15
2022-08-17T22:55:20.561Z,19.73
2022-08-17T22:58:07.343Z,20.80
2022-08-17T23:00:43.509Z,19.88
2022-08-17T23:03:26.003Z,20.05
2022-08-17T23:06:06.854Z,20.05
2022-08-17T23:08:42.527Z,19.98
2022-08-17T23:11:09.474Z,21.15
2022-08-17T23:13:37.714Z,20.27
2022-08-17T23:16:04.736Z,20.05
2022-08-17T23:18:31.682Z,19.50
2022-08-17T23:20:59.888Z,19.83
2022-08-17T23:23:26.855Z,20.45
2022-08-17T23:25:54.721Z,20.50
2022-08-17T23:28:21.974Z,19.95
2022-08-17T23:30:48.938Z,20.80
2022-08-17T23:33:26.741Z,19.77
2022-08-17T23:35:54.229Z,21.55
2022-08-17T23:38:21.992Z,23.13
2022-08-17T23:40:48.890Z,21.40
2022-08-17T23:43:24.212Z,21.92
2022-08-17T23:45:54.250Z,21.25
2022-08-17T23:48:35.084Z,21.40
2022-08-17T23:51:10.499Z,20.95
2022-08-17T23:53:42.010Z,20.40
2022-08-17T23:58:42.941Z,21.35
